sensor_id;sensor_type;location;lat;lon;timestamp;pressure;altitude;pressure_sealevel;temperature;humidity
51261;BME280;61705;46.228;24.812;2023-05-21T00:00:01;97729.94;;;13.07;80.96
51261;BME280;61705;46.228;24.812;2023-05-21T00:02:28;97733.53;;;13.05;81.08
51261;BME280;61705;46.228;24.812;2023-05-21T00:04:55;97724.81;;;13.03;81.27
51261;BME280;61705;46.228;24.812;2023-05-21T00:07:22;97734.47;;;13.04;81.46
51261;BME280;61705;46.228;24.812;2023-05-21T00:09:49;97737.97;;;13.05;81.68
51261;BME280;61705;46.228;24.812;2023-05-21T00:12:15;97735.00;;;13.11;81.68
51261;BME280;61705;46.228;24.812;2023-05-21T00:14:42;97739.28;;;13.14;81.85
51261;BME280;61705;46.228;24.812;2023-05-21T00:17:09;97735.16;;;13.08;82.26
51261;BME280;61705;46.228;24.812;2023-05-21T00:19:35;97739.78;;;13.04;82.58
51261;BME280;61705;46.228;24.812;2023-05-21T00:22:02;97730.13;;;13.03;82.64
51261;BME280;61705;46.228;24.812;2023-05-21T00:24:29;97727.56;;;13.18;81.94
51261;BME280;61705;46.228;24.812;2023-05-21T00:26:56;97718.28;;;13.26;81.42
51261;BME280;61705;46.228;24.812;2023-05-21T00:29:23;97729.25;;;13.19;82.47
51261;BME280;61705;46.228;24.812;2023-05-21T00:31:52;97733.09;;;12.97;83.57
51261;BME280;61705;46.228;24.812;2023-05-21T00:34:18;97748.75;;;13.02;84.07
51261;BME280;61705;46.228;24.812;2023-05-21T00:36:46;97737.91;;;13.22;82.69
51261;BME280;61705;46.228;24.812;2023-05-21T00:39:13;97731.78;;;13.38;81.99
51261;BME280;61705;46.228;24.812;2023-05-21T00:41:40;97728.69;;;13.45;81.61
51261;BME280;61705;46.228;24.812;2023-05-21T00:44:08;97725.03;;;13.48;81.61
51261;BME280;61705;46.228;24.812;2023-05-21T00:46:35;97719.09;;;13.43;81.82
51261;BME280;61705;46.228;24.812;2023-05-21T00:49:02;97721.34;;;13.35;82.48
51261;BME280;61705;46.228;24.812;2023-05-21T00:51:29;97721.06;;;13.39;82.24
51261;BME280;61705;46.228;24.812;2023-05-21T00:53:56;97724.34;;;13.28;82.80
51261;BME280;61705;46.228;24.812;2023-05-21T00:56:24;97718.97;;;13.30;82.99
51261;BME280;61705;46.228;24.812;2023-05-21T00:58:54;97720.03;;;13.26;83.25
51261;BME280;61705;46.228;24.812;2023-05-21T01:01:22;97718.28;;;13.09;83.92
51261;BME280;61705;46.228;24.812;2023-05-21T01:03:53;97719.66;;;13.00;84.50
51261;BME280;61705;46.228;24.812;2023-05-21T01:06:22;97721.56;;;13.14;83.55
51261;BME280;61705;46.228;24.812;2023-05-21T01:08:49;97727.81;;;13.13;83.20
51261;BME280;61705;46.228;24.812;2023-05-21T01:11:16;97723.78;;;13.22;82.87
51261;BME280;61705;46.228;24.812;2023-05-21T01:13:45;97725.75;;;13.18;83.09
51261;BME280;61705;46.228;24.812;2023-05-21T01:16:12;97711.53;;;13.19;82.73
51261;BME280;61705;46.228;24.812;2023-05-21T01:18:39;97706.06;;;13.22;83.08
51261;BME280;61705;46.228;24.812;2023-05-21T01:21:09;97702.34;;;13.26;82.57
51261;BME280;61705;46.228;24.812;2023-05-21T01:23:35;97697.03;;;13.26;82.52
51261;BME280;61705;46.228;24.812;2023-05-21T01:26:02;97708.03;;;13.19;83.16
51261;BME280;61705;46.228;24.812;2023-05-21T01:28:29;97710.31;;;13.09;84.09
51261;BME280;61705;46.228;24.812;2023-05-21T01:31:02;97707.69;;;13.09;84.16
51261;BME280;61705;46.228;24.812;2023-05-21T01:33:42;97702.22;;;12.96;84.76
51261;BME280;61705;46.228;24.812;2023-05-21T01:36:24;97701.59;;;12.91;85.33
51261;BME280;61705;46.228;24.812;2023-05-21T01:38:56;97708.44;;;12.79;85.59
51261;BME280;61705;46.228;24.812;2023-05-21T01:41:28;97691.75;;;12.93;85.19
51261;BME280;61705;46.228;24.812;2023-05-21T01:43:59;97694.47;;;12.92;85.01
51261;BME280;61705;46.228;24.812;2023-05-21T01:46:29;97683.22;;;13.04;84.39
51261;BME280;61705;46.228;24.812;2023-05-21T01:48:58;97686.28;;;13.12;83.63
51261;BME280;61705;46.228;24.812;2023-05-21T01:51:25;97684.31;;;13.16;83.42
51261;BME280;61705;46.228;24.812;2023-05-21T01:53:52;97678.84;;;13.19;83.07
51261;BME280;61705;46.228;24.812;2023-05-21T01:56:19;97680.75;;;13.17;83.34
51261;BME280;61705;46.228;24.812;2023-05-21T01:58:48;97690.22;;;13.05;84.04
51261;BME280;61705;46.228;24.812;2023-05-21T02:01:15;97684.56;;;12.95;84.67
51261;BME280;61705;46.228;24.812;2023-05-21T02:03:42;97676.28;;;13.01;84.39
51261;BME280;61705;46.228;24.812;2023-05-21T02:06:08;97670.97;;;13.17;83.55
51261;BME280;61705;46.228;24.812;2023-05-21T02:08:35;97678.84;;;13.19;83.34
51261;BME280;61705;46.228;24.812;2023-05-21T02:11:03;97677.63;;;13.09;83.80
51261;BME280;61705;46.228;24.812;2023-05-21T02:13:30;97682.34;;;13.03;84.07
51261;BME280;61705;46.228;24.812;2023-05-21T02:15:57;97678.25;;;12.98;84.47
51261;BME280;61705;46.228;24.812;2023-05-21T02:18:24;97670.78;;;13.04;84.05
51261;BME280;61705;46.228;24.812;2023-05-21T02:20:51;97680.28;;;13.09;84.07
51261;BME280;61705;46.228;24.812;2023-05-21T02:23:18;97681.00;;;12.96;84.30
51261;BME280;61705;46.228;24.812;2023-05-21T02:25:45;97676.44;;;12.98;84.24
51261;BME280;61705;46.228;24.812;2023-05-21T02:28:11;97671.66;;;13.05;84.26
51261;BME280;61705;46.228;24.812;2023-05-21T02:30:38;97675.94;;;13.08;83.58
51261;BME280;61705;46.228;24.812;2023-05-21T02:33:08;97671.97;;;12.99;83.74
51261;BME280;61705;46.228;24.812;2023-05-21T02:35:35;97674.56;;;13.00;84.03
51261;BME280;61705;46.228;24.812;2023-05-21T02:38:02;97671.06;;;13.00;83.82
51261;BME280;61705;46.228;24.812;2023-05-21T02:40:28;97666.09;;;12.94;84.22
51261;BME280;61705;46.228;24.812;2023-05-21T02:42:55;97664.97;;;12.98;83.81
51261;BME280;61705;46.228;24.812;2023-05-21T02:45:22;97665.06;;;12.96;83.64
51261;BME280;61705;46.228;24.812;2023-05-21T02:47:48;97672.09;;;12.97;83.14
51261;BME280;61705;46.228;24.812;2023-05-21T02:50:15;97674.53;;;12.85;84.21
51261;BME280;61705;46.228;24.812;2023-05-21T02:52:42;97683.03;;;12.75;84.96
51261;BME280;61705;46.228;24.812;2023-05-21T02:55:09;97684.09;;;12.71;85.30
51261;BME280;61705;46.228;24.812;2023-05-21T02:57:35;97676.09;;;12.73;85.17
51261;BME280;61705;46.228;24.812;2023-05-21T03:00:02;97685.66;;;12.75;85.01
51261;BME280;61705;46.228;24.812;2023-05-21T03:02:31;97685.22;;;12.67;85.62
51261;BME280;61705;46.228;24.812;2023-05-21T03:04:58;97687.34;;;12.61;86.12
51261;BME280;61705;46.228;24.812;2023-05-21T03:07:26;97690.63;;;12.66;86.00
51261;BME280;61705;46.228;24.812;2023-05-21T03:09:52;97689.34;;;12.73;85.74
51261;BME280;61705;46.228;24.812;2023-05-21T03:12:19;97692.59;;;12.78;84.88
51261;BME280;61705;46.228;24.812;2023-05-21T03:14:48;97691.31;;;12.85;84.69
51261;BME280;61705;46.228;24.812;2023-05-21T03:17:14;97695.00;;;12.98;83.91
51261;BME280;61705;46.228;24.812;2023-05-21T03:19:43;97693.13;;;13.00;84.05
51261;BME280;61705;46.228;24.812;2023-05-21T03:22:10;97691.66;;;12.95;84.51
51261;BME280;61705;46.228;24.812;2023-05-21T03:24:37;97683.72;;;13.11;83.67
51261;BME280;61705;46.228;24.812;2023-05-21T03:27:04;97688.69;;;13.17;83.17
51261;BME280;61705;46.228;24.812;2023-05-21T03:29:34;97690.13;;;13.22;83.15
51261;BME280;61705;46.228;24.812;2023-05-21T03:32:01;97685.19;;;13.16;82.93
51261;BME280;61705;46.228;24.812;2023-05-21T03:34:28;97685.69;;;13.23;82.80
51261;BME280;61705;46.228;24.812;2023-05-21T03:36:55;97686.72;;;13.20;82.96
51261;BME280;61705;46.228;24.812;2023-05-21T03:39:22;97679.31;;;13.27;82.48
51261;BME280;61705;46.228;24.812;2023-05-21T03:41:49;97681.59;;;13.33;82.56
51261;BME280;61705;46.228;24.812;2023-05-21T03:44:16;97678.09;;;13.48;82.15
51261;BME280;61705;46.228;24.812;2023-05-21T03:46:42;97676.56;;;13.44;81.73
51261;BME280;61705;46.228;24.812;2023-05-21T03:49:10;97669.91;;;13.37;82.29
51261;BME280;61705;46.228;24.812;2023-05-21T03:51:37;97669.63;;;13.26;82.31
51261;BME280;61705;46.228;24.812;2023-05-21T03:54:05;97669.84;;;13.21;82.52
51261;BME280;61705;46.228;24.812;2023-05-21T03:56:34;97663.34;;;13.43;81.74
51261;BME280;61705;46.228;24.812;2023-05-21T03:59:01;97667.97;;;13.55;81.30
51261;BME280;61705;46.228;24.812;2023-05-21T04:01:27;97675.16;;;13.53;81.44
51261;BME280;61705;46.228;24.812;2023-05-21T04:03:54;97671.72;;;13.67;81.24
51261;BME280;61705;46.228;24.812;2023-05-21T04:06:21;97670.16;;;13.79;80.56
51261;BME280;61705;46.228;24.812;2023-05-21T04:08:48;97668.53;;;13.76;80.78
51261;BME280;61705;46.228;24.812;2023-05-21T04:11:15;97664.03;;;13.92;80.53
51261;BME280;61705;46.228;24.812;2023-05-21T04:13:42;97675.38;;;13.80;80.60
51261;BME280;61705;46.228;24.812;2023-05-21T04:16:09;97668.22;;;13.96;80.40
51261;BME280;61705;46.228;24.812;2023-05-21T04:18:36;97670.72;;;14.14;79.54
51261;BME280;61705;46.228;24.812;2023-05-21T04:21:03;97669.22;;;14.24;79.03
51261;BME280;61705;46.228;24.812;2023-05-21T04:23:30;97669.81;;;14.29;78.94
51261;BME280;61705;46.228;24.812;2023-05-21T04:25:56;97674.16;;;14.16;79.40
51261;BME280;61705;46.228;24.812;2023-05-21T04:28:23;97670.66;;;14.30;78.90
51261;BME280;61705;46.228;24.812;2023-05-21T04:30:51;97673.69;;;14.38;78.73
51261;BME280;61705;46.228;24.812;2023-05-21T04:33:18;97673.38;;;14.28;79.04
51261;BME280;61705;46.228;24.812;2023-05-21T04:35:45;97676.31;;;14.09;80.02
51261;BME280;61705;46.228;24.812;2023-05-21T04:38:16;97682.38;;;14.11;80.18
51261;BME280;61705;46.228;24.812;2023-05-21T04:40:49;97677.56;;;14.18;80.11
51261;BME280;61705;46.228;24.812;2023-05-21T04:43:16;97674.72;;;14.21;79.99
51261;BME280;61705;46.228;24.812;2023-05-21T04:45:43;97674.53;;;14.24;79.79
51261;BME280;61705;46.228;24.812;2023-05-21T04:48:11;97671.78;;;14.26;80.01
51261;BME280;61705;46.228;24.812;2023-05-21T04:50:38;97675.06;;;14.15;79.69
51261;BME280;61705;46.228;24.812;2023-05-21T04:53:07;97671.94;;;14.08;80.24
51261;BME280;61705;46.228;24.812;2023-05-21T04:55:34;97675.53;;;14.07;80.58
51261;BME280;61705;46.228;24.812;2023-05-21T04:58:05;97676.50;;;14.06;80.66
51261;BME280;61705;46.228;24.812;2023-05-21T05:00:33;97669.56;;;14.04;80.47
51261;BME280;61705;46.228;24.812;2023-05-21T05:02:59;97669.19;;;14.10;80.47
51261;BME280;61705;46.228;24.812;2023-05-21T05:05:26;97672.34;;;14.16;80.49
51261;BME280;61705;46.228;24.812;2023-05-21T05:07:53;97668.66;;;14.19;80.30
51261;BME280;61705;46.228;24.812;2023-05-21T05:10:20;97674.34;;;14.27;79.89
51261;BME280;61705;46.228;24.812;2023-05-21T05:12:47;97675.53;;;14.52;79.48
51261;BME280;61705;46.228;24.812;2023-05-21T05:15:14;97671.28;;;14.63;79.02
51261;BME280;61705;46.228;24.812;2023-05-21T05:17:41;97671.47;;;14.75;78.60
51261;BME280;61705;46.228;24.812;2023-05-21T05:20:08;97667.44;;;14.96;78.07
51261;BME280;61705;46.228;24.812;2023-05-21T05:22:36;97675.50;;;15.09;77.65
51261;BME280;61705;46.228;24.812;2023-05-21T05:25:03;97672.84;;;15.09;77.59
51261;BME280;61705;46.228;24.812;2023-05-21T05:27:30;97672.75;;;15.10;77.35
51261;BME280;61705;46.228;24.812;2023-05-21T05:29:56;97670.53;;;15.17;77.41
51261;BME280;61705;46.228;24.812;2023-05-21T05:32:23;97667.59;;;15.22;77.30
51261;BME280;61705;46.228;24.812;2023-05-21T05:34:50;97667.41;;;15.52;76.30
51261;BME280;61705;46.228;24.812;2023-05-21T05:37:16;97662.94;;;15.79;75.16
51261;BME280;61705;46.228;24.812;2023-05-21T05:39:43;97663.09;;;15.91;74.73
51261;BME280;61705;46.228;24.812;2023-05-21T05:42:10;97669.09;;;16.07;74.50
51261;BME280;61705;46.228;24.812;2023-05-21T05:44:36;97664.91;;;16.03;74.20
51261;BME280;61705;46.228;24.812;2023-05-21T05:47:03;97668.13;;;16.08;74.15
51261;BME280;61705;46.228;24.812;2023-05-21T05:49:34;97669.75;;;16.10;74.11
51261;BME280;61705;46.228;24.812;2023-05-21T05:52:02;97668.13;;;16.08;73.94
51261;BME280;61705;46.228;24.812;2023-05-21T05:54:29;97660.13;;;16.08;74.04
51261;BME280;61705;46.228;24.812;2023-05-21T05:56:55;97659.06;;;16.23;73.65
51261;BME280;61705;46.228;24.812;2023-05-21T05:59:22;97660.59;;;16.27;72.91
51261;BME280;61705;46.228;24.812;2023-05-21T06:01:49;97652.91;;;16.35;72.73
51261;BME280;61705;46.228;24.812;2023-05-21T06:04:15;97649.59;;;16.45;71.81
51261;BME280;61705;46.228;24.812;2023-05-21T06:06:43;97643.31;;;16.46;71.54
51261;BME280;61705;46.228;24.812;2023-05-21T06:09:10;97640.50;;;16.47;71.41
51261;BME280;61705;46.228;24.812;2023-05-21T06:11:37;97642.53;;;16.56;70.70
51261;BME280;61705;46.228;24.812;2023-05-21T06:14:04;97638.59;;;16.62;70.59
51261;BME280;61705;46.228;24.812;2023-05-21T06:16:30;97648.94;;;16.67;69.96
51261;BME280;61705;46.228;24.812;2023-05-21T06:18:58;97641.28;;;16.75;69.38
51261;BME280;61705;46.228;24.812;2023-05-21T06:21:25;97636.25;;;16.83;69.17
51261;BME280;61705;46.228;24.812;2023-05-21T06:23:52;97634.84;;;16.90;69.19
51261;BME280;61705;46.228;24.812;2023-05-21T06:26:18;97633.72;;;17.05;69.15
51261;BME280;61705;46.228;24.812;2023-05-21T06:28:45;97625.47;;;17.21;68.80
51261;BME280;61705;46.228;24.812;2023-05-21T06:31:12;97634.00;;;17.26;68.71
51261;BME280;61705;46.228;24.812;2023-05-21T06:33:39;97620.47;;;17.41;69.30
51261;BME280;61705;46.228;24.812;2023-05-21T06:36:07;97630.47;;;17.50;69.47
51261;BME280;61705;46.228;24.812;2023-05-21T06:38:34;97631.72;;;17.57;68.92
51261;BME280;61705;46.228;24.812;2023-05-21T06:41:03;97625.91;;;17.63;68.16
51261;BME280;61705;46.228;24.812;2023-05-21T06:43:29;97617.34;;;17.71;67.37
51261;BME280;61705;46.228;24.812;2023-05-21T06:45:56;97617.09;;;17.74;65.65
51261;BME280;61705;46.228;24.812;2023-05-21T06:48:23;97616.44;;;17.83;63.77
51261;BME280;61705;46.228;24.812;2023-05-21T06:50:49;97608.41;;;17.83;61.84
51261;BME280;61705;46.228;24.812;2023-05-21T06:53:16;97606.13;;;17.90;61.64
51261;BME280;61705;46.228;24.812;2023-05-21T06:55:43;97603.59;;;17.99;61.38
51261;BME280;61705;46.228;24.812;2023-05-21T06:58:10;97605.69;;;18.07;61.10
51261;BME280;61705;46.228;24.812;2023-05-21T07:00:37;97599.50;;;18.18;60.55
51261;BME280;61705;46.228;24.812;2023-05-21T07:03:04;97595.13;;;18.28;60.31
51261;BME280;61705;46.228;24.812;2023-05-21T07:05:31;97589.69;;;18.30;59.96
51261;BME280;61705;46.228;24.812;2023-05-21T07:07:57;97590.53;;;18.53;59.49
51261;BME280;61705;46.228;24.812;2023-05-21T07:10:25;97580.56;;;18.66;59.24
51261;BME280;61705;46.228;24.812;2023-05-21T07:12:52;97579.00;;;18.75;59.18
51261;BME280;61705;46.228;24.812;2023-05-21T07:15:18;97580.31;;;18.80;59.26
51261;BME280;61705;46.228;24.812;2023-05-21T07:17:45;97581.28;;;18.90;59.06
51261;BME280;61705;46.228;24.812;2023-05-21T07:20:12;97572.91;;;18.95;58.33
51261;BME280;61705;46.228;24.812;2023-05-21T07:22:40;97572.88;;;19.06;58.12
51261;BME280;61705;46.228;24.812;2023-05-21T07:25:08;97567.97;;;19.23;57.98
51261;BME280;61705;46.228;24.812;2023-05-21T07:27:35;97562.69;;;19.32;57.37
51261;BME280;61705;46.228;24.812;2023-05-21T07:30:02;97564.44;;;19.54;57.53
51261;BME280;61705;46.228;24.812;2023-05-21T07:32:30;97570.03;;;19.62;57.18
51261;BME280;61705;46.228;24.812;2023-05-21T07:34:59;97556.09;;;19.69;56.50
51261;BME280;61705;46.228;24.812;2023-05-21T07:37:27;97565.88;;;19.70;56.54
51261;BME280;61705;46.228;24.812;2023-05-21T07:39:56;97561.94;;;19.74;56.67
51261;BME280;61705;46.228;24.812;2023-05-21T07:42:26;97560.09;;;19.74;56.98
51261;BME280;61705;46.228;24.812;2023-05-21T07:44:53;97558.66;;;19.70;56.67
51261;BME280;61705;46.228;24.812;2023-05-21T07:47:19;97559.53;;;19.71;56.70
51261;BME280;61705;46.228;24.812;2023-05-21T07:49:46;97556.44;;;19.75;56.27
51261;BME280;61705;46.228;24.812;2023-05-21T07:52:13;97563.19;;;19.70;56.18
51261;BME280;61705;46.228;24.812;2023-05-21T07:54:39;97557.28;;;19.76;55.70
51261;BME280;61705;46.228;24.812;2023-05-21T07:57:06;97565.59;;;20.15;54.83
51261;BME280;61705;46.228;24.812;2023-05-21T07:59:33;97562.22;;;20.43;53.98
51261;BME280;61705;46.228;24.812;2023-05-21T08:02:00;97555.88;;;20.75;53.15
51261;BME280;61705;46.228;24.812;2023-05-21T08:04:26;97563.28;;;20.92;53.27
51261;BME280;61705;46.228;24.812;2023-05-21T08:06:53;97552.59;;;21.31;52.21
51261;BME280;61705;46.228;24.812;2023-05-21T08:09:20;97546.13;;;21.53;51.38
51261;BME280;61705;46.228;24.812;2023-05-21T08:11:47;97533.56;;;21.44;50.45
51261;BME280;61705;46.228;24.812;2023-05-21T08:14:13;97545.72;;;21.48;50.56
51261;BME280;61705;46.228;24.812;2023-05-21T08:16:40;97547.69;;;21.65;50.39
51261;BME280;61705;46.228;24.812;2023-05-21T08:19:07;97541.31;;;21.95;49.84
51261;BME280;61705;46.228;24.812;2023-05-21T08:21:34;97539.53;;;22.14;49.25
51261;BME280;61705;46.228;24.812;2023-05-21T08:24:00;97532.59;;;22.68;48.53
51261;BME280;61705;46.228;24.812;2023-05-21T08:26:28;97529.66;;;22.52;48.81
51261;BME280;61705;46.228;24.812;2023-05-21T08:28:55;97532.31;;;22.14;49.37
51261;BME280;61705;46.228;24.812;2023-05-21T08:31:21;97528.66;;;22.06;49.36
51261;BME280;61705;46.228;24.812;2023-05-21T08:33:52;97535.19;;;21.93;49.73
51261;BME280;61705;46.228;24.812;2023-05-21T08:36:19;97533.31;;;22.13;49.26
51261;BME280;61705;46.228;24.812;2023-05-21T08:38:46;97526.97;;;22.52;48.58
51261;BME280;61705;46.228;24.812;2023-05-21T08:41:14;97523.94;;;22.92;47.86
51261;BME280;61705;46.228;24.812;2023-05-21T08:43:42;97527.94;;;22.98;47.29
51261;BME280;61705;46.228;24.812;2023-05-21T08:46:15;97526.56;;;22.84;47.72
51261;BME280;61705;46.228;24.812;2023-05-21T08:48:44;97529.38;;;22.82;48.15
51261;BME280;61705;46.228;24.812;2023-05-21T08:51:12;97524.28;;;22.79;48.08
51261;BME280;61705;46.228;24.812;2023-05-21T08:53:39;97523.66;;;22.67;47.88
51261;BME280;61705;46.228;24.812;2023-05-21T08:56:06;97517.81;;;22.44;48.20
51261;BME280;61705;46.228;24.812;2023-05-21T08:58:34;97521.66;;;22.69;47.80
51261;BME280;61705;46.228;24.812;2023-05-21T09:01:02;97521.88;;;22.48;48.61
51261;BME280;61705;46.228;24.812;2023-05-21T09:03:30;97518.91;;;22.79;47.80
51261;BME280;61705;46.228;24.812;2023-05-21T09:05:58;97515.81;;;22.74;47.58
51261;BME280;61705;46.228;24.812;2023-05-21T09:08:34;97511.47;;;22.91;46.38
51261;BME280;61705;46.228;24.812;2023-05-21T09:11:01;97511.88;;;22.96;46.03
51261;BME280;61705;46.228;24.812;2023-05-21T09:13:32;97502.13;;;23.13;46.16
51261;BME280;61705;46.228;24.812;2023-05-21T09:15:59;97508.44;;;23.04;46.89
51261;BME280;61705;46.228;24.812;2023-05-21T09:18:25;97504.84;;;23.31;46.76
51261;BME280;61705;46.228;24.812;2023-05-21T09:20:53;97506.28;;;23.07;45.28
51261;BME280;61705;46.228;24.812;2023-05-21T09:23:21;97504.00;;;23.30;44.86
51261;BME280;61705;46.228;24.812;2023-05-21T09:25:48;97509.53;;;23.47;45.66
51261;BME280;61705;46.228;24.812;2023-05-21T09:28:18;97502.31;;;23.29;44.67
51261;BME280;61705;46.228;24.812;2023-05-21T09:30:46;97499.22;;;23.78;43.50
51261;BME280;61705;46.228;24.812;2023-05-21T09:33:23;97497.84;;;23.74;43.83
51261;BME280;61705;46.228;24.812;2023-05-21T09:35:51;97492.72;;;22.99;44.73
51261;BME280;61705;46.228;24.812;2023-05-21T09:38:21;97493.84;;;22.69;45.99
51261;BME280;61705;46.228;24.812;2023-05-21T09:40:48;97494.03;;;22.67;46.21
51261;BME280;61705;46.228;24.812;2023-05-21T09:43:15;97498.59;;;22.85;46.17
51261;BME280;61705;46.228;24.812;2023-05-21T09:48:40;97498.06;;;22.54;48.01
51261;BME280;61705;46.228;24.812;2023-05-21T09:51:15;97499.78;;;22.45;49.03
51261;BME280;61705;46.228;24.812;2023-05-21T09:53:51;97505.09;;;22.64;49.39
51261;BME280;61705;46.228;24.812;2023-05-21T09:56:22;97495.81;;;23.04;48.84
51261;BME280;61705;46.228;24.812;2023-05-21T09:58:57;97495.13;;;23.38;48.05
51261;BME280;61705;46.228;24.812;2023-05-21T10:01:26;97501.59;;;23.09;49.35
51261;BME280;61705;46.228;24.812;2023-05-21T10:03:57;97489.84;;;23.01;49.91
51261;BME280;61705;46.228;24.812;2023-05-21T10:06:31;97502.38;;;22.92;50.96
51261;BME280;61705;46.228;24.812;2023-05-21T10:09:02;97500.75;;;22.54;52.69
51261;BME280;61705;46.228;24.812;2023-05-21T10:11:31;97503.16;;;22.19;54.13
51261;BME280;61705;46.228;24.812;2023-05-21T10:14:16;97506.63;;;21.63;56.04
51261;BME280;61705;46.228;24.812;2023-05-21T10:16:46;97503.69;;;21.37;55.45
51261;BME280;61705;46.228;24.812;2023-05-21T10:19:14;97493.03;;;21.26;57.10
51261;BME280;61705;46.228;24.812;2023-05-21T10:21:42;97497.16;;;21.20;58.60
51261;BME280;61705;46.228;24.812;2023-05-21T10:24:10;97487.25;;;21.30;59.07
51261;BME280;61705;46.228;24.812;2023-05-21T10:26:39;97493.03;;;21.06;66.07
51261;BME280;61705;46.228;24.812;2023-05-21T10:29:06;97487.84;;;21.34;64.63
51261;BME280;61705;46.228;24.812;2023-05-21T10:31:33;97492.88;;;21.95;62.24
51261;BME280;61705;46.228;24.812;2023-05-21T10:34:02;97495.94;;;22.00;61.88
51261;BME280;61705;46.228;24.812;2023-05-21T10:36:31;97494.28;;;21.80;60.21
51261;BME280;61705;46.228;24.812;2023-05-21T10:39:00;97502.38;;;21.70;59.75
51261;BME280;61705;46.228;24.812;2023-05-21T10:41:33;97491.63;;;21.70;57.57
51261;BME280;61705;46.228;24.812;2023-05-21T10:44:22;97478.22;;;22.08;55.43
51261;BME280;61705;46.228;24.812;2023-05-21T10:49:53;97468.25;;;22.83;49.65
51261;BME280;61705;46.228;24.812;2023-05-21T11:00:31;97471.09;;;23.09;50.02
51261;BME280;61705;46.228;24.812;2023-05-21T11:02:59;97461.72;;;22.85;49.00
51261;BME280;61705;46.228;24.812;2023-05-21T11:05:54;97466.63;;;23.17;47.53
51261;BME280;61705;46.228;24.812;2023-05-21T11:08:31;97465.00;;;23.25;49.03
51261;BME280;61705;46.228;24.812;2023-05-21T11:11:02;97449.75;;;23.33;47.35
51261;BME280;61705;46.228;24.812;2023-05-21T11:13:44;97456.47;;;23.91;46.49
51261;BME280;61705;46.228;24.812;2023-05-21T11:16:15;97449.25;;;24.00;46.86
51261;BME280;61705;46.228;24.812;2023-05-21T11:21:17;97444.44;;;23.24;47.90
51261;BME280;61705;46.228;24.812;2023-05-21T11:26:24;97439.41;;;24.51;44.58
51261;BME280;61705;46.228;24.812;2023-05-21T11:29:05;97444.84;;;24.59;44.60
51261;BME280;61705;46.228;24.812;2023-05-21T11:31:33;97428.75;;;25.00;43.43
51261;BME280;61705;46.228;24.812;2023-05-21T11:34:20;97428.97;;;25.39;41.50
51261;BME280;61705;46.228;24.812;2023-05-21T11:36:48;97418.81;;;25.25;41.84
51261;BME280;61705;46.228;24.812;2023-05-21T11:39:18;97426.09;;;25.24;41.71
51261;BME280;61705;46.228;24.812;2023-05-21T11:41:52;97411.38;;;25.19;41.87
51261;BME280;61705;46.228;24.812;2023-05-21T11:44:41;97407.66;;;25.44;41.37
51261;BME280;61705;46.228;24.812;2023-05-21T11:47:10;97414.91;;;25.60;41.58
51261;BME280;61705;46.228;24.812;2023-05-21T11:49:38;97406.56;;;24.88;42.28
51261;BME280;61705;46.228;24.812;2023-05-21T11:52:06;97407.44;;;24.97;42.33
51261;BME280;61705;46.228;24.812;2023-05-21T11:54:40;97412.56;;;24.15;45.60
51261;BME280;61705;46.228;24.812;2023-05-21T11:57:09;97425.72;;;23.84;47.86
51261;BME280;61705;46.228;24.812;2023-05-21T11:59:35;97421.00;;;23.42;48.95
51261;BME280;61705;46.228;24.812;2023-05-21T12:02:03;97420.78;;;23.35;48.85
51261;BME280;61705;46.228;24.812;2023-05-21T12:04:34;97410.00;;;23.35;49.11
51261;BME280;61705;46.228;24.812;2023-05-21T12:07:05;97410.34;;;22.87;50.33
51261;BME280;61705;46.228;24.812;2023-05-21T12:09:39;97410.34;;;22.87;50.33
51261;BME280;61705;46.228;24.812;2023-05-21T12:12:14;97407.16;;;23.19;48.76
51261;BME280;61705;46.228;24.812;2023-05-21T12:14:46;97404.00;;;23.06;49.64
51261;BME280;61705;46.228;24.812;2023-05-21T12:17:18;97399.44;;;23.24;49.72
51261;BME280;61705;46.228;24.812;2023-05-21T12:19:45;97391.06;;;23.09;49.86
51261;BME280;61705;46.228;24.812;2023-05-21T12:22:13;97390.81;;;22.85;49.06
51261;BME280;61705;46.228;24.812;2023-05-21T12:24:43;97387.19;;;23.74;47.17
51261;BME280;61705;46.228;24.812;2023-05-21T12:27:11;97376.94;;;24.54;44.37
51261;BME280;61705;46.228;24.812;2023-05-21T12:29:40;97381.44;;;25.12;43.50
51261;BME280;61705;46.228;24.812;2023-05-21T12:32:10;97379.91;;;25.26;43.52
51261;BME280;61705;46.228;24.812;2023-05-21T12:37:25;97380.97;;;24.42;45.10
51261;BME280;61705;46.228;24.812;2023-05-21T12:39:53;97383.38;;;24.19;45.01
51261;BME280;61705;46.228;24.812;2023-05-21T12:42:27;97388.56;;;24.12;44.02
51261;BME280;61705;46.228;24.812;2023-05-21T12:44:56;97382.66;;;24.08;46.22
51261;BME280;61705;46.228;24.812;2023-05-21T12:47:24;97383.28;;;25.03;44.90
51261;BME280;61705;46.228;24.812;2023-05-21T12:50:07;97382.09;;;25.71;43.30
51261;BME280;61705;46.228;24.812;2023-05-21T12:52:34;97384.59;;;25.73;42.51
51261;BME280;61705;46.228;24.812;2023-05-21T12:55:01;97391.97;;;24.48;44.26
51261;BME280;61705;46.228;24.812;2023-05-21T12:57:35;97387.97;;;24.77;43.55
51261;BME280;61705;46.228;24.812;2023-05-21T13:00:03;97397.31;;;25.07;42.71
51261;BME280;61705;46.228;24.812;2023-05-21T13:02:34;97394.28;;;25.59;41.65
51261;BME280;61705;46.228;24.812;2023-05-21T13:05:06;97392.13;;;26.18;40.71
51261;BME280;61705;46.228;24.812;2023-05-21T13:07:37;97392.31;;;26.56;39.93
51261;BME280;61705;46.228;24.812;2023-05-21T13:10:05;97388.41;;;26.59;39.23
51261;BME280;61705;46.228;24.812;2023-05-21T13:12:33;97389.44;;;26.89;39.27
51261;BME280;61705;46.228;24.812;2023-05-21T13:15:01;97380.38;;;26.74;38.93
51261;BME280;61705;46.228;24.812;2023-05-21T13:17:28;97382.00;;;26.04;38.83